sensor_id;sensor_type;location;lat;lon;timestamp;P1;durP1;ratioP1;P2;durP2;ratioP2
21386;SDS011;10854;45.922;6.716;2023-07-20T15:38:49;5.00;;;3.67;;
21386;SDS011;10854;45.922;6.716;2023-07-20T15:41:17;4.75;;;3.65;;
21386;SDS011;10854;45.922;6.716;2023-07-20T15:43:46;4.90;;;3.72;;
21386;SDS011;10854;45.922;6.716;2023-07-20T15:48:47;4.95;;;3.70;;
21386;SDS011;10854;45.922;6.716;2023-07-20T15:51:15;5.10;;;3.65;;
21386;SDS011;10854;45.922;6.716;2023-07-20T15:53:44;6.22;;;3.42;;
21386;SDS011;10854;45.922;6.716;2023-07-20T15:56:15;4.35;;;3.80;;
21386;SDS011;10854;45.922;6.716;2023-07-20T15:58:45;3.90;;;3.50;;
21386;SDS011;10854;45.922;6.716;2023-07-20T16:01:14;9.07;;;3.72;;
21386;SDS011;10854;45.922;6.716;2023-07-20T16:03:43;4.95;;;3.38;;
21386;SDS011;10854;45.922;6.716;2023-07-20T16:06:11;3.85;;;3.55;;
21386;SDS011;10854;45.922;6.716;2023-07-20T16:08:40;5.57;;;3.58;;
21386;SDS011;10854;45.922;6.716;2023-07-20T16:11:08;4.25;;;3.30;;
21386;SDS011;10854;45.922;6.716;2023-07-20T16:13:37;4.35;;;3.30;;
21386;SDS011;10854;45.922;6.716;2023-07-20T16:16:05;4.95;;;3.50;;
21386;SDS011;10854;45.922;6.716;2023-07-20T16:18:34;3.40;;;3.10;;
21386;SDS011;10854;45.922;6.716;2023-07-20T16:21:03;3.63;;;3.33;;
21386;SDS011;10854;45.922;6.716;2023-07-20T16:23:31;3.50;;;3.20;;
21386;SDS011;10854;45.922;6.716;2023-07-20T16:26:00;7.50;;;3.38;;
21386;SDS011;10854;45.922;6.716;2023-07-20T16:28:28;4.93;;;3.30;;
21386;SDS011;10854;45.922;6.716;2023-07-20T16:30:57;4.00;;;3.10;;
21386;SDS011;10854;45.922;6.716;2023-07-20T16:33:26;5.18;;;3.13;;
21386;SDS011;10854;45.922;6.716;2023-07-20T16:35:57;5.10;;;3.05;;
21386;SDS011;10854;45.922;6.716;2023-07-20T16:38:26;4.38;;;3.38;;
21386;SDS011;10854;45.922;6.716;2023-07-20T16:40:55;3.70;;;3.28;;
21386;SDS011;10854;45.922;6.716;2023-07-20T16:43:25;5.53;;;3.13;;
21386;SDS011;10854;45.922;6.716;2023-07-20T16:46:00;3.97;;;3.10;;
21386;SDS011;10854;45.922;6.716;2023-07-20T16:48:36;4.40;;;3.03;;
21386;SDS011;10854;45.922;6.716;2023-07-20T16:51:08;4.10;;;3.28;;
21386;SDS011;10854;45.922;6.716;2023-07-20T16:53:36;3.40;;;3.10;;
21386;SDS011;10854;45.922;6.716;2023-07-20T16:56:07;4.45;;;2.90;;
21386;SDS011;10854;45.922;6.716;2023-07-20T16:58:37;3.38;;;3.00;;
21386;SDS011;10854;45.922;6.716;2023-07-20T17:01:06;3.55;;;3.05;;
21386;SDS011;10854;45.922;6.716;2023-07-20T17:03:34;3.38;;;3.08;;
21386;SDS011;10854;45.922;6.716;2023-07-20T17:06:03;4.80;;;3.08;;
21386;SDS011;10854;45.922;6.716;2023-07-20T17:08:33;4.97;;;3.20;;
21386;SDS011;10854;45.922;6.716;2023-07-20T17:11:01;4.40;;;2.83;;
21386;SDS011;10854;45.922;6.716;2023-07-20T17:13:30;4.15;;;3.00;;
21386;SDS011;10854;45.922;6.716;2023-07-20T17:16:00;4.50;;;3.13;;
21386;SDS011;10854;45.922;6.716;2023-07-20T17:18:30;3.53;;;3.22;;
21386;SDS011;10854;45.922;6.716;2023-07-20T17:20:59;3.67;;;2.75;;
21386;SDS011;10854;45.922;6.716;2023-07-20T17:23:27;4.18;;;2.97;;
21386;SDS011;10854;45.922;6.716;2023-07-20T17:26:01;7.60;;;3.60;;
21386;SDS011;10854;45.922;6.716;2023-07-20T17:28:33;3.05;;;2.75;;
21386;SDS011;10854;45.922;6.716;2023-07-20T17:31:04;4.00;;;2.67;;
21386;SDS011;10854;45.922;6.716;2023-07-20T17:33:33;4.85;;;2.80;;
21386;SDS011;10854;45.922;6.716;2023-07-20T17:36:02;3.58;;;2.53;;
21386;SDS011;10854;45.922;6.716;2023-07-20T17:38:33;4.15;;;2.30;;
21386;SDS011;10854;45.922;6.716;2023-07-20T17:41:06;3.85;;;2.55;;
21386;SDS011;10854;45.922;6.716;2023-07-20T17:43:35;3.10;;;2.80;;
21386;SDS011;10854;45.922;6.716;2023-07-20T17:46:04;3.60;;;2.42;;
21386;SDS011;10854;45.922;6.716;2023-07-20T17:48:35;2.97;;;2.72;;
21386;SDS011;10854;45.922;6.716;2023-07-20T17:51:03;3.90;;;2.45;;
21386;SDS011;10854;45.922;6.716;2023-07-20T17:53:34;3.20;;;2.63;;
21386;SDS011;10854;45.922;6.716;2023-07-20T17:56:02;4.82;;;2.72;;
21386;SDS011;10854;45.922;6.716;2023-07-20T17:58:33;2.72;;;2.30;;
21386;SDS011;10854;45.922;6.716;2023-07-20T18:01:01;4.40;;;2.70;;
21386;SDS011;10854;45.922;6.716;2023-07-20T18:03:30;3.80;;;2.55;;
21386;SDS011;10854;45.922;6.716;2023-07-20T18:06:05;4.50;;;2.90;;
21386;SDS011;10854;45.922;6.716;2023-07-20T18:08:35;5.57;;;2.45;;
21386;SDS011;10854;45.922;6.716;2023-07-20T18:11:05;4.47;;;2.78;;
21386;SDS011;10854;45.922;6.716;2023-07-20T18:13:37;2.38;;;2.10;;
21386;SDS011;10854;45.922;6.716;2023-07-20T18:16:06;4.97;;;2.53;;
21386;SDS011;10854;45.922;6.716;2023-07-20T18:18:35;3.55;;;2.00;;
21386;SDS011;10854;45.922;6.716;2023-07-20T18:21:03;3.10;;;2.30;;
21386;SDS011;10854;45.922;6.716;2023-07-20T18:23:31;8.93;;;2.38;;
21386;SDS011;10854;45.922;6.716;2023-07-20T18:26:00;4.80;;;2.40;;
21386;SDS011;10854;45.922;6.716;2023-07-20T18:28:29;4.43;;;2.45;;
21386;SDS011;10854;45.922;6.716;2023-07-20T18:30:58;4.75;;;2.80;;
21386;SDS011;10854;45.922;6.716;2023-07-20T18:33:32;4.43;;;2.25;;
21386;SDS011;10854;45.922;6.716;2023-07-20T18:36:01;4.78;;;2.50;;
21386;SDS011;10854;45.922;6.716;2023-07-20T18:38:29;5.57;;;3.00;;
21386;SDS011;10854;45.922;6.716;2023-07-20T18:40:59;7.07;;;2.80;;
21386;SDS011;10854;45.922;6.716;2023-07-20T18:43:27;3.40;;;2.75;;
21386;SDS011;10854;45.922;6.716;2023-07-20T18:45:56;3.20;;;2.55;;
21386;SDS011;10854;45.922;6.716;2023-07-20T18:48:25;4.70;;;2.50;;
21386;SDS011;10854;45.922;6.716;2023-07-20T18:50:53;4.85;;;2.85;;
21386;SDS011;10854;45.922;6.716;2023-07-20T18:53:22;5.68;;;2.70;;
21386;SDS011;10854;45.922;6.716;2023-07-20T18:55:50;6.53;;;3.00;;
21386;SDS011;10854;45.922;6.716;2023-07-20T18:58:19;4.10;;;2.40;;
21386;SDS011;10854;45.922;6.716;2023-07-20T19:00:47;4.43;;;2.70;;
21386;SDS011;10854;45.922;6.716;2023-07-20T19:03:16;5.00;;;2.80;;
21386;SDS011;10854;45.922;6.716;2023-07-20T19:05:44;4.80;;;3.03;;
21386;SDS011;10854;45.922;6.716;2023-07-20T19:08:17;7.32;;;3.00;;
21386;SDS011;10854;45.922;6.716;2023-07-20T19:10:45;3.40;;;3.10;;
21386;SDS011;10854;45.922;6.716;2023-07-20T19:13:17;3.95;;;2.90;;
21386;SDS011;10854;45.922;6.716;2023-07-20T19:15:48;4.63;;;2.75;;
21386;SDS011;10854;45.922;6.716;2023-07-20T19:18:19;5.10;;;2.67;;
21386;SDS011;10854;45.922;6.716;2023-07-20T19:20:48;3.63;;;2.80;;
21386;SDS011;10854;45.922;6.716;2023-07-20T19:23:16;5.00;;;2.78;;
21386;SDS011;10854;45.922;6.716;2023-07-20T19:25:45;5.88;;;2.63;;
21386;SDS011;10854;45.922;6.716;2023-07-20T19:28:13;4.20;;;2.80;;
21386;SDS011;10854;45.922;6.716;2023-07-20T19:30:42;8.13;;;3.35;;
21386;SDS011;10854;45.922;6.716;2023-07-20T19:33:10;3.35;;;2.85;;
21386;SDS011;10854;45.922;6.716;2023-07-20T19:35:39;5.38;;;3.00;;
21386;SDS011;10854;45.922;6.716;2023-07-20T19:38:09;3.45;;;2.50;;
21386;SDS011;10854;45.922;6.716;2023-07-20T19:40:39;6.60;;;2.88;;
21386;SDS011;10854;45.922;6.716;2023-07-20T19:43:07;4.05;;;2.60;;
21386;SDS011;10854;45.922;6.716;2023-07-20T19:45:40;6.35;;;2.92;;
21386;SDS011;10854;45.922;6.716;2023-07-20T19:48:09;3.63;;;2.65;;
21386;SDS011;10854;45.922;6.716;2023-07-20T19:50:37;5.10;;;2.55;;
21386;SDS011;10854;45.922;6.716;2023-07-20T19:53:06;4.20;;;2.22;;
21386;SDS011;10854;45.922;6.716;2023-07-20T19:55:58;3.63;;;2.40;;
21386;SDS011;10854;45.922;6.716;2023-07-20T19:58:28;2.80;;;2.40;;
21386;SDS011;10854;45.922;6.716;2023-07-20T20:00:56;4.63;;;2.55;;
21386;SDS011;10854;45.922;6.716;2023-07-20T20:03:29;4.05;;;2.60;;
21386;SDS011;10854;45.922;6.716;2023-07-20T20:06:01;3.13;;;2.30;;
21386;SDS011;10854;45.922;6.716;2023-07-20T20:08:29;4.82;;;2.60;;
21386;SDS011;10854;45.922;6.716;2023-07-20T20:10:59;2.70;;;2.47;;
21386;SDS011;10854;45.922;6.716;2023-07-20T20:13:30;3.80;;;2.65;;
21386;SDS011;10854;45.922;6.716;2023-07-20T20:15:59;5.97;;;2.75;;
21386;SDS011;10854;45.922;6.716;2023-07-20T20:18:28;5.18;;;2.70;;
21386;SDS011;10854;45.922;6.716;2023-07-20T20:20:56;4.97;;;2.80;;
21386;SDS011;10854;45.922;6.716;2023-07-20T20:23:28;3.00;;;2.20;;
21386;SDS011;10854;45.922;6.716;2023-07-20T20:25:57;7.17;;;2.70;;
21386;SDS011;10854;45.922;6.716;2023-07-20T20:28:28;3.60;;;2.50;;
21386;SDS011;10854;45.922;6.716;2023-07-20T20:30:56;3.63;;;2.50;;
21386;SDS011;10854;45.922;6.716;2023-07-20T20:33:25;4.97;;;2.70;;
21386;SDS011;10854;45.922;6.716;2023-07-20T20:35:53;4.93;;;2.80;;
21386;SDS011;10854;45.922;6.716;2023-07-20T20:38:27;3.40;;;2.90;;
21386;SDS011;10854;45.922;6.716;2023-07-20T20:40:55;4.63;;;2.73;;
21386;SDS011;10854;45.922;6.716;2023-07-20T20:43:25;4.20;;;2.43;;
21386;SDS011;10854;45.922;6.716;2023-07-20T20:46:01;5.20;;;2.70;;
21386;SDS011;10854;45.922;6.716;2023-07-20T20:48:36;3.77;;;2.80;;
21386;SDS011;10854;45.922;6.716;2023-07-20T20:51:06;3.83;;;2.53;;
21386;SDS011;10854;45.922;6.716;2023-07-20T20:53:35;4.90;;;2.57;;
21386;SDS011;10854;45.922;6.716;2023-07-20T20:56:03;6.17;;;2.83;;
21386;SDS011;10854;45.922;6.716;2023-07-20T20:58:32;6.47;;;3.03;;
21386;SDS011;10854;45.922;6.716;2023-07-20T21:01:01;6.10;;;3.13;;
21386;SDS011;10854;45.922;6.716;2023-07-20T21:03:30;4.73;;;2.70;;
21386;SDS011;10854;45.922;6.716;2023-07-20T21:05:58;3.27;;;2.50;;
21386;SDS011;10854;45.922;6.716;2023-07-20T21:08:27;3.73;;;2.77;;
21386;SDS011;10854;45.922;6.716;2023-07-20T21:10:59;5.10;;;2.50;;
21386;SDS011;10854;45.922;6.716;2023-07-20T21:13:27;5.07;;;2.63;;
21386;SDS011;10854;45.922;6.716;2023-07-20T21:15:56;3.33;;;2.70;;
21386;SDS011;10854;45.922;6.716;2023-07-20T21:18:24;4.03;;;2.43;;
21386;SDS011;10854;45.922;6.716;2023-07-20T21:20:53;4.47;;;2.60;;
21386;SDS011;10854;45.922;6.716;2023-07-20T21:23:22;5.90;;;2.60;;
21386;SDS011;10854;45.922;6.716;2023-07-20T21:25:50;2.53;;;2.30;;
21386;SDS011;10854;45.922;6.716;2023-07-20T21:28:19;3.07;;;2.30;;
21386;SDS011;10854;45.922;6.716;2023-07-20T21:31:09;3.50;;;2.53;;
21386;SDS011;10854;45.922;6.716;2023-07-20T21:33:40;3.23;;;2.53;;
21386;SDS011;10854;45.922;6.716;2023-07-20T21:36:09;4.70;;;2.20;;
21386;SDS011;10854;45.922;6.716;2023-07-20T21:38:37;4.10;;;2.70;;
21386;SDS011;10854;45.922;6.716;2023-07-20T21:41:06;4.70;;;2.60;;
21386;SDS011;10854;45.922;6.716;2023-07-20T21:43:35;4.90;;;2.60;;
21386;SDS011;10854;45.922;6.716;2023-07-20T21:46:03;4.80;;;2.43;;
21386;SDS011;10854;45.922;6.716;2023-07-20T21:48:32;3.17;;;2.40;;
21386;SDS011;10854;45.922;6.716;2023-07-20T21:51:01;5.20;;;2.40;;
21386;SDS011;10854;45.922;6.716;2023-07-20T21:53:29;3.80;;;2.63;;
21386;SDS011;10854;45.922;6.716;2023-07-20T21:55:58;3.33;;;2.50;;
21386;SDS011;10854;45.922;6.716;2023-07-20T21:58:27;3.33;;;2.47;;
21386;SDS011;10854;45.922;6.716;2023-07-20T22:00:57;4.63;;;2.37;;
21386;SDS011;10854;45.922;6.716;2023-07-20T22:03:36;4.43;;;2.80;;
21386;SDS011;10854;45.922;6.716;2023-07-20T22:06:05;2.70;;;2.43;;
21386;SDS011;10854;45.922;6.716;2023-07-20T22:08:34;2.97;;;2.67;;
21386;SDS011;10854;45.922;6.716;2023-07-20T22:11:06;5.87;;;2.60;;
21386;SDS011;10854;45.922;6.716;2023-07-20T22:13:35;4.70;;;2.80;;
21386;SDS011;10854;45.922;6.716;2023-07-20T22:16:04;3.77;;;2.60;;
21386;SDS011;10854;45.922;6.716;2023-07-20T22:18:32;3.80;;;2.73;;
21386;SDS011;10854;45.922;6.716;2023-07-20T22:21:03;4.23;;;2.70;;
21386;SDS011;10854;45.922;6.716;2023-07-20T22:23:32;5.10;;;3.17;;
21386;SDS011;10854;45.922;6.716;2023-07-20T22:26:01;2.87;;;2.57;;
21386;SDS011;10854;45.922;6.716;2023-07-20T22:28:30;3.33;;;2.60;;
21386;SDS011;10854;45.922;6.716;2023-07-20T22:30:59;2.57;;;2.37;;
21386;SDS011;10854;45.922;6.716;2023-07-20T22:33:27;2.63;;;2.43;;
21386;SDS011;10854;45.922;6.716;2023-07-20T22:35:56;3.70;;;2.60;;
21386;SDS011;10854;45.922;6.716;2023-07-20T22:38:25;3.20;;;2.57;;
21386;SDS011;10854;45.922;6.716;2023-07-20T22:40:53;4.80;;;2.70;;
21386;SDS011;10854;45.922;6.716;2023-07-20T22:43:22;3.70;;;2.57;;
21386;SDS011;10854;45.922;6.716;2023-07-20T22:45:55;3.80;;;2.60;;
21386;SDS011;10854;45.922;6.716;2023-07-20T22:48:24;3.27;;;2.97;;
21386;SDS011;10854;45.922;6.716;2023-07-20T22:50:55;4.23;;;2.50;;
21386;SDS011;10854;45.922;6.716;2023-07-20T22:53:26;3.60;;;2.33;;
21386;SDS011;10854;45.922;6.716;2023-07-20T22:55:56;3.63;;;2.77;;
21386;SDS011;10854;45.922;6.716;2023-07-20T22:58:25;3.93;;;2.67;;
21386;SDS011;10854;45.922;6.716;2023-07-20T23:00:54;4.90;;;3.00;;
21386;SDS011;10854;45.922;6.716;2023-07-20T23:03:22;2.87;;;2.63;;
21386;SDS011;10854;45.922;6.716;2023-07-20T23:05:51;4.23;;;2.57;;
21386;SDS011;10854;45.922;6.716;2023-07-20T23:08:20;5.30;;;3.00;;
21386;SDS011;10854;45.922;6.716;2023-07-20T23:10:49;3.37;;;3.03;;
21386;SDS011;10854;45.922;6.716;2023-07-20T23:13:18;3.87;;;2.90;;
21386;SDS011;10854;45.922;6.716;2023-07-20T23:15:47;3.50;;;2.80;;
21386;SDS011;10854;45.922;6.716;2023-07-20T23:18:15;4.10;;;2.40;;
21386;SDS011;10854;45.922;6.716;2023-07-20T23:20:44;5.23;;;3.10;;
21386;SDS011;10854;45.922;6.716;2023-07-20T23:23:15;3.20;;;2.87;;
21386;SDS011;10854;45.922;6.716;2023-07-20T23:25:43;3.33;;;2.80;;
21386;SDS011;10854;45.922;6.716;2023-07-20T23:28:12;4.33;;;2.60;;
21386;SDS011;10854;45.922;6.716;2023-07-20T23:30:44;3.87;;;2.70;;
21386;SDS011;10854;45.922;6.716;2023-07-20T23:33:16;4.87;;;2.93;;
21386;SDS011;10854;45.922;6.716;2023-07-20T23:35:48;7.03;;;3.03;;
21386;SDS011;10854;45.922;6.716;2023-07-20T23:38:17;4.43;;;3.20;;
21386;SDS011;10854;45.922;6.716;2023-07-20T23:40:45;4.43;;;2.70;;
21386;SDS011;10854;45.922;6.716;2023-07-20T23:43:14;5.10;;;4.03;;
21386;SDS011;10854;45.922;6.716;2023-07-20T23:45:42;4.63;;;3.13;;
21386;SDS011;10854;45.922;6.716;2023-07-20T23:48:11;3.73;;;3.20;;
21386;SDS011;10854;45.922;6.716;2023-07-20T23:50:40;4.23;;;3.47;;
21386;SDS011;10854;45.922;6.716;2023-07-20T23:53:09;3.33;;;2.87;;
21386;SDS011;10854;45.922;6.716;2023-07-20T23:55:38;5.50;;;2.87;;
21386;SDS011;10854;45.922;6.716;2023-07-20T23:58:07;4.37;;;2.87;;
